sensor_id;sensor_type;location;lat;lon;timestamp;temperature;humidity
34873;DHT22;21084;51.098;14.506;2023-05-28T00:00:53;6.80;77.90
34873;DHT22;21084;51.098;14.506;2023-05-28T00:03:23;6.80;78.20
34873;DHT22;21084;51.098;14.506;2023-05-28T00:05:52;6.70;78.10
34873;DHT22;21084;51.098;14.506;2023-05-28T00:08:22;6.70;78.10
34873;DHT22;21084;51.098;14.506;2023-05-28T00:10:50;6.60;78.10
34873;DHT22;21084;51.098;14.506;2023-05-28T00:13:19;6.60;78.20
34873;DHT22;21084;51.098;14.506;2023-05-28T00:15:47;6.50;78.00
34873;DHT22;21084;51.098;14.506;2023-05-28T00:18:15;6.50;78.10
34873;DHT22;21084;51.098;14.506;2023-05-28T00:20:43;6.50;78.40
34873;DHT22;21084;51.098;14.506;2023-05-28T00:23:12;6.40;78.30
34873;DHT22;21084;51.098;14.506;2023-05-28T00:25:42;6.40;78.60
34873;DHT22;21084;51.098;14.506;2023-05-28T00:28:11;6.30;78.50
34873;DHT22;21084;51.098;14.506;2023-05-28T00:30:39;6.30;78.50
34873;DHT22;21084;51.098;14.506;2023-05-28T00:33:07;6.30;78.60
34873;DHT22;21084;51.098;14.506;2023-05-28T00:35:36;6.20;78.40
34873;DHT22;21084;51.098;14.506;2023-05-28T00:38:04;6.20;78.60
34873;DHT22;21084;51.098;14.506;2023-05-28T00:40:32;6.20;78.70
34873;DHT22;21084;51.098;14.506;2023-05-28T00:43:02;6.20;78.80
34873;DHT22;21084;51.098;14.506;2023-05-28T00:45:30;6.20;78.90
34873;DHT22;21084;51.098;14.506;2023-05-28T00:47:59;6.10;78.50
34873;DHT22;21084;51.098;14.506;2023-05-28T00:50:27;6.10;78.70
34873;DHT22;21084;51.098;14.506;2023-05-28T00:52:56;6.10;78.70
34873;DHT22;21084;51.098;14.506;2023-05-28T00:55:24;6.00;78.70
34873;DHT22;21084;51.098;14.506;2023-05-28T00:57:53;6.00;78.70
34873;DHT22;21084;51.098;14.506;2023-05-28T01:00:24;6.00;78.70
34873;DHT22;21084;51.098;14.506;2023-05-28T01:02:52;5.90;78.70
34873;DHT22;21084;51.098;14.506;2023-05-28T01:05:20;5.90;78.80
34873;DHT22;21084;51.098;14.506;2023-05-28T01:07:49;5.90;78.90
34873;DHT22;21084;51.098;14.506;2023-05-28T01:10:18;5.80;78.90
34873;DHT22;21084;51.098;14.506;2023-05-28T01:12:46;5.80;79.00
34873;DHT22;21084;51.098;14.506;2023-05-28T01:15:15;5.80;79.00
34873;DHT22;21084;51.098;14.506;2023-05-28T01:17:44;5.80;78.80
34873;DHT22;21084;51.098;14.506;2023-05-28T01:20:15;5.70;78.90
34873;DHT22;21084;51.098;14.506;2023-05-28T01:22:45;5.70;78.90
34873;DHT22;21084;51.098;14.506;2023-05-28T01:25:16;5.70;79.20
34873;DHT22;21084;51.098;14.506;2023-05-28T01:27:45;5.70;79.10
34873;DHT22;21084;51.098;14.506;2023-05-28T01:30:13;5.60;79.00
34873;DHT22;21084;51.098;14.506;2023-05-28T01:32:41;5.60;79.20
34873;DHT22;21084;51.098;14.506;2023-05-28T01:35:10;5.60;79.00
34873;DHT22;21084;51.098;14.506;2023-05-28T01:37:39;5.60;79.00
34873;DHT22;21084;51.098;14.506;2023-05-28T01:40:08;5.50;78.80
34873;DHT22;21084;51.098;14.506;2023-05-28T01:42:39;5.50;78.80
34873;DHT22;21084;51.098;14.506;2023-05-28T01:45:08;5.50;78.80
34873;DHT22;21084;51.098;14.506;2023-05-28T01:47:37;5.40;78.70
34873;DHT22;21084;51.098;14.506;2023-05-28T01:50:06;5.40;78.70
34873;DHT22;21084;51.098;14.506;2023-05-28T01:52:34;5.40;79.50
34873;DHT22;21084;51.098;14.506;2023-05-28T01:55:03;5.30;79.00
34873;DHT22;21084;51.098;14.506;2023-05-28T01:57:32;5.30;79.00
34873;DHT22;21084;51.098;14.506;2023-05-28T02:00:01;5.20;78.90
34873;DHT22;21084;51.098;14.506;2023-05-28T02:02:30;5.20;79.10
34873;DHT22;21084;51.098;14.506;2023-05-28T02:04:58;5.20;79.30
34873;DHT22;21084;51.098;14.506;2023-05-28T02:07:27;5.20;79.30
34873;DHT22;21084;51.098;14.506;2023-05-28T02:09:55;5.20;79.40
34873;DHT22;21084;51.098;14.506;2023-05-28T02:12:23;5.10;79.40
34873;DHT22;21084;51.098;14.506;2023-05-28T02:14:51;5.10;79.50
34873;DHT22;21084;51.098;14.506;2023-05-28T02:17:21;5.10;79.40
34873;DHT22;21084;51.098;14.506;2023-05-28T02:19:49;5.10;79.30
34873;DHT22;21084;51.098;14.506;2023-05-28T02:22:17;5.00;79.20
34873;DHT22;21084;51.098;14.506;2023-05-28T02:24:45;5.00;79.10
34873;DHT22;21084;51.098;14.506;2023-05-28T02:27:14;5.00;79.00
34873;DHT22;21084;51.098;14.506;2023-05-28T02:29:43;4.90;79.10
34873;DHT22;21084;51.098;14.506;2023-05-28T02:32:13;4.90;79.40
34873;DHT22;21084;51.098;14.506;2023-05-28T02:34:42;4.90;79.30
34873;DHT22;21084;51.098;14.506;2023-05-28T02:37:11;4.90;79.40
34873;DHT22;21084;51.098;14.506;2023-05-28T02:39:39;4.90;79.10
34873;DHT22;21084;51.098;14.506;2023-05-28T02:42:08;4.80;79.20
34873;DHT22;21084;51.098;14.506;2023-05-28T02:44:36;4.80;79.50
34873;DHT22;21084;51.098;14.506;2023-05-28T02:47:04;4.80;79.80
34873;DHT22;21084;51.098;14.506;2023-05-28T02:49:33;4.80;79.70
34873;DHT22;21084;51.098;14.506;2023-05-28T02:52:02;4.90;79.90
34873;DHT22;21084;51.098;14.506;2023-05-28T02:54:31;4.90;79.80
34873;DHT22;21084;51.098;14.506;2023-05-28T02:56:59;4.80;79.40
34873;DHT22;21084;51.098;14.506;2023-05-28T02:59:27;4.90;79.30
34873;DHT22;21084;51.098;14.506;2023-05-28T03:01:55;4.80;79.20
34873;DHT22;21084;51.098;14.506;2023-05-28T03:04:24;4.80;79.20
34873;DHT22;21084;51.098;14.506;2023-05-28T03:06:52;4.80;79.50
34873;DHT22;21084;51.098;14.506;2023-05-28T03:09:21;4.80;79.40
34873;DHT22;21084;51.098;14.506;2023-05-28T03:11:50;4.80;79.40
34873;DHT22;21084;51.098;14.506;2023-05-28T03:14:18;4.80;79.30
34873;DHT22;21084;51.098;14.506;2023-05-28T03:16:46;4.80;79.30
34873;DHT22;21084;51.098;14.506;2023-05-28T03:19:14;4.80;79.20
34873;DHT22;21084;51.098;14.506;2023-05-28T03:21:43;4.80;79.30
34873;DHT22;21084;51.098;14.506;2023-05-28T03:24:11;4.80;79.40
34873;DHT22;21084;51.098;14.506;2023-05-28T03:26:40;4.90;79.60
34873;DHT22;21084;51.098;14.506;2023-05-28T03:29:09;4.90;79.40
34873;DHT22;21084;51.098;14.506;2023-05-28T03:31:42;4.90;79.40
34873;DHT22;21084;51.098;14.506;2023-05-28T03:34:11;4.90;79.60
34873;DHT22;21084;51.098;14.506;2023-05-28T03:36:39;5.00;79.60
34873;DHT22;21084;51.098;14.506;2023-05-28T03:39:07;5.00;79.60
34873;DHT22;21084;51.098;14.506;2023-05-28T03:41:36;5.00;79.70
34873;DHT22;21084;51.098;14.506;2023-05-28T03:44:06;5.00;79.50
34873;DHT22;21084;51.098;14.506;2023-05-28T03:46:34;5.10;79.60
34873;DHT22;21084;51.098;14.506;2023-05-28T03:49:03;5.20;79.80
34873;DHT22;21084;51.098;14.506;2023-05-28T03:51:31;5.20;79.60
34873;DHT22;21084;51.098;14.506;2023-05-28T03:53:59;5.30;79.80
34873;DHT22;21084;51.098;14.506;2023-05-28T03:56:28;5.40;79.90
34873;DHT22;21084;51.098;14.506;2023-05-28T03:58:57;5.40;79.80
34873;DHT22;21084;51.098;14.506;2023-05-28T04:01:27;5.50;79.80
34873;DHT22;21084;51.098;14.506;2023-05-28T04:03:55;5.60;80.00
34873;DHT22;21084;51.098;14.506;2023-05-28T04:06:23;5.70;80.00
34873;DHT22;21084;51.098;14.506;2023-05-28T04:08:52;5.80;80.00
34873;DHT22;21084;51.098;14.506;2023-05-28T04:11:20;5.90;79.90
34873;DHT22;21084;51.098;14.506;2023-05-28T04:13:51;6.00;79.80
34873;DHT22;21084;51.098;14.506;2023-05-28T04:16:20;6.10;79.60
34873;DHT22;21084;51.098;14.506;2023-05-28T04:18:51;6.20;79.60
34873;DHT22;21084;51.098;14.506;2023-05-28T04:21:20;6.40;79.50
34873;DHT22;21084;51.098;14.506;2023-05-28T04:23:49;6.60;79.50
34873;DHT22;21084;51.098;14.506;2023-05-28T04:26:18;6.80;79.60
34873;DHT22;21084;51.098;14.506;2023-05-28T04:28:49;7.00;79.70
34873;DHT22;21084;51.098;14.506;2023-05-28T04:31:17;7.20;79.70
34873;DHT22;21084;51.098;14.506;2023-05-28T04:33:46;7.40;79.40
34873;DHT22;21084;51.098;14.506;2023-05-28T04:36:15;7.60;78.70
34873;DHT22;21084;51.098;14.506;2023-05-28T04:38:43;7.80;78.40
34873;DHT22;21084;51.098;14.506;2023-05-28T04:41:12;8.00;78.40
34873;DHT22;21084;51.098;14.506;2023-05-28T04:43:41;8.30;78.40
34873;DHT22;21084;51.098;14.506;2023-05-28T04:46:10;8.50;77.90
34873;DHT22;21084;51.098;14.506;2023-05-28T04:48:40;8.70;76.90
34873;DHT22;21084;51.098;14.506;2023-05-28T04:51:09;8.90;75.90
34873;DHT22;21084;51.098;14.506;2023-05-28T04:53:38;9.10;75.80
34873;DHT22;21084;51.098;14.506;2023-05-28T04:56:06;9.30;75.30
34873;DHT22;21084;51.098;14.506;2023-05-28T04:58:35;9.60;75.50
34873;DHT22;21084;51.098;14.506;2023-05-28T05:01:04;9.90;75.40
34873;DHT22;21084;51.098;14.506;2023-05-28T05:03:35;10.10;73.90
34873;DHT22;21084;51.098;14.506;2023-05-28T05:06:03;10.40;73.60
34873;DHT22;21084;51.098;14.506;2023-05-28T05:08:31;10.60;72.60
34873;DHT22;21084;51.098;14.506;2023-05-28T05:11:01;10.80;70.60
34873;DHT22;21084;51.098;14.506;2023-05-28T05:13:31;11.00;69.70
34873;DHT22;21084;51.098;14.506;2023-05-28T05:15:59;11.30;68.90
34873;DHT22;21084;51.098;14.506;2023-05-28T05:18:28;11.60;67.80
34873;DHT22;21084;51.098;14.506;2023-05-28T05:20:56;11.80;67.10
34873;DHT22;21084;51.098;14.506;2023-05-28T05:23:24;12.00;66.70
34873;DHT22;21084;51.098;14.506;2023-05-28T05:25:52;12.30;66.50
34873;DHT22;21084;51.098;14.506;2023-05-28T05:28:22;12.60;66.50
34873;DHT22;21084;51.098;14.506;2023-05-28T05:30:51;12.90;66.70
34873;DHT22;21084;51.098;14.506;2023-05-28T05:33:19;13.20;66.40
34873;DHT22;21084;51.098;14.506;2023-05-28T05:35:47;13.50;64.60
34873;DHT22;21084;51.098;14.506;2023-05-28T05:38:15;13.80;64.10
34873;DHT22;21084;51.098;14.506;2023-05-28T05:40:45;14.10;61.80
34873;DHT22;21084;51.098;14.506;2023-05-28T05:43:13;14.30;60.10
34873;DHT22;21084;51.098;14.506;2023-05-28T05:45:43;14.60;61.00
34873;DHT22;21084;51.098;14.506;2023-05-28T05:48:11;14.80;60.50
34873;DHT22;21084;51.098;14.506;2023-05-28T05:50:48;15.00;56.10
34873;DHT22;21084;51.098;14.506;2023-05-28T05:53:17;14.90;52.90
34873;DHT22;21084;51.098;14.506;2023-05-28T05:55:45;15.00;53.90
34873;DHT22;21084;51.098;14.506;2023-05-28T05:58:13;15.20;53.50
34873;DHT22;21084;51.098;14.506;2023-05-28T06:00:43;15.50;54.60
34873;DHT22;21084;51.098;14.506;2023-05-28T06:03:11;15.90;53.20
34873;DHT22;21084;51.098;14.506;2023-05-28T06:05:40;16.10;52.10
34873;DHT22;21084;51.098;14.506;2023-05-28T06:08:08;16.20;53.30
34873;DHT22;21084;51.098;14.506;2023-05-28T06:10:37;16.50;53.30
34873;DHT22;21084;51.098;14.506;2023-05-28T06:13:05;16.90;52.00
34873;DHT22;21084;51.098;14.506;2023-05-28T06:15:33;17.40;52.30
34873;DHT22;21084;51.098;14.506;2023-05-28T06:18:03;17.90;53.10
34873;DHT22;21084;51.098;14.506;2023-05-28T06:20:31;18.00;49.70
34873;DHT22;21084;51.098;14.506;2023-05-28T06:23:00;18.10;47.30
34873;DHT22;21084;51.098;14.506;2023-05-28T06:25:28;18.00;48.40
34873;DHT22;21084;51.098;14.506;2023-05-28T06:27:56;18.40;48.10
34873;DHT22;21084;51.098;14.506;2023-05-28T06:30:24;18.00;47.20
34873;DHT22;21084;51.098;14.506;2023-05-28T06:32:53;18.40;48.60
34873;DHT22;21084;51.098;14.506;2023-05-28T06:35:23;19.00;48.00
34873;DHT22;21084;51.098;14.506;2023-05-28T06:37:51;19.40;45.10
34873;DHT22;21084;51.098;14.506;2023-05-28T06:40:19;19.70;47.50
34873;DHT22;21084;51.098;14.506;2023-05-28T06:42:48;19.90;45.30
34873;DHT22;21084;51.098;14.506;2023-05-28T06:45:16;20.20;45.90
34873;DHT22;21084;51.098;14.506;2023-05-28T06:47:45;20.70;44.80
34873;DHT22;21084;51.098;14.506;2023-05-28T06:50:13;20.40;44.70
34873;DHT22;21084;51.098;14.506;2023-05-28T06:52:43;20.70;45.40
34873;DHT22;21084;51.098;14.506;2023-05-28T06:55:11;20.50;42.30
34873;DHT22;21084;51.098;14.506;2023-05-28T06:57:39;20.60;43.30
34873;DHT22;21084;51.098;14.506;2023-05-28T07:00:08;20.70;42.10
34873;DHT22;21084;51.098;14.506;2023-05-28T07:02:41;20.50;38.60
34873;DHT22;21084;51.098;14.506;2023-05-28T07:05:09;20.40;41.10
34873;DHT22;21084;51.098;14.506;2023-05-28T07:07:37;20.70;43.40
34873;DHT22;21084;51.098;14.506;2023-05-28T07:10:07;20.00;40.20
34873;DHT22;21084;51.098;14.506;2023-05-28T07:12:38;20.70;42.70
34873;DHT22;21084;51.098;14.506;2023-05-28T07:15:07;21.40;41.00
34873;DHT22;21084;51.098;14.506;2023-05-28T07:17:35;21.30;38.10
34873;DHT22;21084;51.098;14.506;2023-05-28T07:20:04;21.00;38.00
34873;DHT22;21084;51.098;14.506;2023-05-28T07:22:33;21.10;39.00
34873;DHT22;21084;51.098;14.506;2023-05-28T07:25:01;21.00;38.10
34873;DHT22;21084;51.098;14.506;2023-05-28T07:27:30;20.80;41.00
34873;DHT22;21084;51.098;14.506;2023-05-28T07:29:59;21.60;39.80
34873;DHT22;21084;51.098;14.506;2023-05-28T07:32:27;22.30;41.70
34873;DHT22;21084;51.098;14.506;2023-05-28T07:34:55;21.70;39.60
34873;DHT22;21084;51.098;14.506;2023-05-28T07:37:23;21.10;40.20
34873;DHT22;21084;51.098;14.506;2023-05-28T07:39:52;21.80;41.30
34873;DHT22;21084;51.098;14.506;2023-05-28T07:42:20;22.20;38.10
34873;DHT22;21084;51.098;14.506;2023-05-28T07:44:50;22.40;40.00
34873;DHT22;21084;51.098;14.506;2023-05-28T07:47:18;23.10;37.00
34873;DHT22;21084;51.098;14.506;2023-05-28T07:49:46;23.90;37.50
34873;DHT22;21084;51.098;14.506;2023-05-28T07:52:14;24.30;37.80
34873;DHT22;21084;51.098;14.506;2023-05-28T07:54:43;24.60;36.80
34873;DHT22;21084;51.098;14.506;2023-05-28T07:57:11;25.20;36.60
34873;DHT22;21084;51.098;14.506;2023-05-28T07:59:41;24.40;32.60
34873;DHT22;21084;51.098;14.506;2023-05-28T08:02:11;22.50;33.40
34873;DHT22;21084;51.098;14.506;2023-05-28T08:04:39;22.90;32.10
34873;DHT22;21084;51.098;14.506;2023-05-28T08:07:08;23.20;32.40
34873;DHT22;21084;51.098;14.506;2023-05-28T08:09:37;22.90;30.30
34873;DHT22;21084;51.098;14.506;2023-05-28T08:12:06;24.00;31.00
34873;DHT22;21084;51.098;14.506;2023-05-28T08:14:34;24.40;30.60
34873;DHT22;21084;51.098;14.506;2023-05-28T08:17:02;25.00;29.90
34873;DHT22;21084;51.098;14.506;2023-05-28T08:19:32;25.70;29.40
34873;DHT22;21084;51.098;14.506;2023-05-28T08:22:00;26.10;29.70
34873;DHT22;21084;51.098;14.506;2023-05-28T08:24:28;26.00;29.50
34873;DHT22;21084;51.098;14.506;2023-05-28T08:26:57;25.90;29.10
34873;DHT22;21084;51.098;14.506;2023-05-28T08:29:25;26.00;29.70
34873;DHT22;21084;51.098;14.506;2023-05-28T08:31:53;26.00;30.00
34873;DHT22;21084;51.098;14.506;2023-05-28T08:34:22;26.60;30.30
34873;DHT22;21084;51.098;14.506;2023-05-28T08:36:52;27.60;29.20
34873;DHT22;21084;51.098;14.506;2023-05-28T08:39:20;27.80;27.60
34873;DHT22;21084;51.098;14.506;2023-05-28T08:41:51;25.90;28.70
34873;DHT22;21084;51.098;14.506;2023-05-28T08:44:19;25.60;29.90
34873;DHT22;21084;51.098;14.506;2023-05-28T08:46:48;26.20;29.40
34873;DHT22;21084;51.098;14.506;2023-05-28T08:49:18;26.70;29.70
34873;DHT22;21084;51.098;14.506;2023-05-28T08:51:46;26.20;32.20
34873;DHT22;21084;51.098;14.506;2023-05-28T08:54:18;27.20;32.50
34873;DHT22;21084;51.098;14.506;2023-05-28T08:56:46;27.70;29.90
34873;DHT22;21084;51.098;14.506;2023-05-28T08:59:14;28.50;29.80
34873;DHT22;21084;51.098;14.506;2023-05-28T09:01:43;28.20;29.30
34873;DHT22;21084;51.098;14.506;2023-05-28T09:04:12;28.40;29.40
34873;DHT22;21084;51.098;14.506;2023-05-28T09:06:40;28.30;30.80
34873;DHT22;21084;51.098;14.506;2023-05-28T09:09:08;29.00;29.50
34873;DHT22;21084;51.098;14.506;2023-05-28T09:11:38;29.50;30.00
34873;DHT22;21084;51.098;14.506;2023-05-28T09:14:10;30.10;29.20
34873;DHT22;21084;51.098;14.506;2023-05-28T09:16:39;29.90;28.40
34873;DHT22;21084;51.098;14.506;2023-05-28T09:19:08;30.70;28.10
34873;DHT22;21084;51.098;14.506;2023-05-28T09:21:37;30.80;27.40
34873;DHT22;21084;51.098;14.506;2023-05-28T09:24:06;30.20;27.50
34873;DHT22;21084;51.098;14.506;2023-05-28T09:26:34;30.70;27.90
34873;DHT22;21084;51.098;14.506;2023-05-28T09:29:03;30.30;27.50
34873;DHT22;21084;51.098;14.506;2023-05-28T09:31:38;30.70;27.60
34873;DHT22;21084;51.098;14.506;2023-05-28T09:34:07;30.60;27.50
34873;DHT22;21084;51.098;14.506;2023-05-28T09:36:36;30.00;27.70
34873;DHT22;21084;51.098;14.506;2023-05-28T09:39:08;29.70;26.80
34873;DHT22;21084;51.098;14.506;2023-05-28T09:41:36;29.90;27.40
34873;DHT22;21084;51.098;14.506;2023-05-28T09:44:12;30.30;27.40
34873;DHT22;21084;51.098;14.506;2023-05-28T09:46:41;30.60;27.00
34873;DHT22;21084;51.098;14.506;2023-05-28T09:49:13;30.80;26.80
34873;DHT22;21084;51.098;14.506;2023-05-28T09:51:42;30.70;26.80
34873;DHT22;21084;51.098;14.506;2023-05-28T09:54:12;30.70;27.50
34873;DHT22;21084;51.098;14.506;2023-05-28T09:56:41;30.10;26.20
34873;DHT22;21084;51.098;14.506;2023-05-28T09:59:11;30.60;26.40
34873;DHT22;21084;51.098;14.506;2023-05-28T10:01:43;30.30;27.40
34873;DHT22;21084;51.098;14.506;2023-05-28T10:04:17;30.50;27.30
34873;DHT22;21084;51.098;14.506;2023-05-28T10:06:47;30.70;26.70
34873;DHT22;21084;51.098;14.506;2023-05-28T10:09:16;31.60;26.00
34873;DHT22;21084;51.098;14.506;2023-05-28T10:11:46;31.80;25.60
34873;DHT22;21084;51.098;14.506;2023-05-28T10:14:18;31.90;26.20
34873;DHT22;21084;51.098;14.506;2023-05-28T10:16:48;31.30;25.30
34873;DHT22;21084;51.098;14.506;2023-05-28T10:19:17;30.30;25.70
34873;DHT22;21084;51.098;14.506;2023-05-28T10:21:45;29.80;26.10
34873;DHT22;21084;51.098;14.506;2023-05-28T10:24:13;29.90;26.20
34873;DHT22;21084;51.098;14.506;2023-05-28T10:26:43;30.60;26.60
34873;DHT22;21084;51.098;14.506;2023-05-28T10:29:11;31.50;25.90
34873;DHT22;21084;51.098;14.506;2023-05-28T10:31:40;31.70;25.30
34873;DHT22;21084;51.098;14.506;2023-05-28T10:34:16;30.50;25.50
34873;DHT22;21084;51.098;14.506;2023-05-28T10:36:52;30.10;26.10
34873;DHT22;21084;51.098;14.506;2023-05-28T10:39:42;30.80;26.10
34873;DHT22;21084;51.098;14.506;2023-05-28T10:42:13;31.50;25.60
34873;DHT22;21084;51.098;14.506;2023-05-28T10:47:30;31.70;25.20
34873;DHT22;21084;51.098;14.506;2023-05-28T10:50:00;31.80;24.40
34873;DHT22;21084;51.098;14.506;2023-05-28T10:52:43;32.40;24.00
34873;DHT22;21084;51.098;14.506;2023-05-28T10:55:11;30.70;24.10
34873;DHT22;21084;51.098;14.506;2023-05-28T10:57:41;30.90;25.80
34873;DHT22;21084;51.098;14.506;2023-05-28T11:00:10;31.30;25.30
34873;DHT22;21084;51.098;14.506;2023-05-28T11:02:42;31.10;24.90
34873;DHT22;21084;51.098;14.506;2023-05-28T11:05:12;31.10;25.30
34873;DHT22;21084;51.098;14.506;2023-05-28T11:07:40;31.50;24.50
34873;DHT22;21084;51.098;14.506;2023-05-28T11:10:09;31.30;25.80
34873;DHT22;21084;51.098;14.506;2023-05-28T11:12:39;31.60;25.00
34873;DHT22;21084;51.098;14.506;2023-05-28T11:15:09;31.90;25.10
34873;DHT22;21084;51.098;14.506;2023-05-28T11:17:37;31.90;23.90
34873;DHT22;21084;51.098;14.506;2023-05-28T11:20:15;32.00;24.40
34873;DHT22;21084;51.098;14.506;2023-05-28T11:22:44;32.10;24.80
34873;DHT22;21084;51.098;14.506;2023-05-28T11:25:12;32.70;24.30
34873;DHT22;21084;51.098;14.506;2023-05-28T11:27:41;32.50;23.60
34873;DHT22;21084;51.098;14.506;2023-05-28T11:30:10;32.20;23.80
34873;DHT22;21084;51.098;14.506;2023-05-28T11:32:39;32.60;24.00
34873;DHT22;21084;51.098;14.506;2023-05-28T11:35:09;32.90;24.40
34873;DHT22;21084;51.098;14.506;2023-05-28T11:37:39;32.90;24.10
34873;DHT22;21084;51.098;14.506;2023-05-28T11:40:08;33.30;24.10
34873;DHT22;21084;51.098;14.506;2023-05-28T11:42:37;33.20;23.60
34873;DHT22;21084;51.098;14.506;2023-05-28T11:45:07;33.60;23.90
34873;DHT22;21084;51.098;14.506;2023-05-28T11:47:37;33.90;23.30
34873;DHT22;21084;51.098;14.506;2023-05-28T11:50:05;34.00;23.50
34873;DHT22;21084;51.098;14.506;2023-05-28T11:52:34;34.30;22.60
34873;DHT22;21084;51.098;14.506;2023-05-28T11:55:04;33.90;22.50
34873;DHT22;21084;51.098;14.506;2023-05-28T11:57:32;33.60;22.10
34873;DHT22;21084;51.098;14.506;2023-05-28T12:00:04;32.60;22.80
34873;DHT22;21084;51.098;14.506;2023-05-28T12:02:44;33.40;22.90
34873;DHT22;21084;51.098;14.506;2023-05-28T12:05:13;33.50;22.40
34873;DHT22;21084;51.098;14.506;2023-05-28T12:07:43;33.40;22.60
34873;DHT22;21084;51.098;14.506;2023-05-28T12:10:13;32.60;21.90
34873;DHT22;21084;51.098;14.506;2023-05-28T12:12:44;32.40;22.20
34873;DHT22;21084;51.098;14.506;2023-05-28T12:15:12;31.60;22.10
34873;DHT22;21084;51.098;14.506;2023-05-28T12:17:41;31.90;23.10
34873;DHT22;21084;51.098;14.506;2023-05-28T12:20:28;32.20;22.80
34873;DHT22;21084;51.098;14.506;2023-05-28T12:23:03;32.60;22.50
34873;DHT22;21084;51.098;14.506;2023-05-28T12:28:24;31.30;22.40
34873;DHT22;21084;51.098;14.506;2023-05-28T12:30:52;31.90;22.70
34873;DHT22;21084;51.098;14.506;2023-05-28T12:33:22;32.60;22.10
34873;DHT22;21084;51.098;14.506;2023-05-28T12:35:51;32.40;22.20
34873;DHT22;21084;51.098;14.506;2023-05-28T12:38:19;32.20;22.10
34873;DHT22;21084;51.098;14.506;2023-05-28T12:40:48;32.50;22.30
34873;DHT22;21084;51.098;14.506;2023-05-28T12:43:16;32.40;22.20
34873;DHT22;21084;51.098;14.506;2023-05-28T12:45:46;32.60;22.40
34873;DHT22;21084;51.098;14.506;2023-05-28T12:48:14;32.40;21.30
34873;DHT22;21084;51.098;14.506;2023-05-28T12:50:42;32.90;22.70
34873;DHT22;21084;51.098;14.506;2023-05-28T12:53:10;33.80;22.20
34873;DHT22;21084;51.098;14.506;2023-05-28T12:55:39;33.50;21.50
34873;DHT22;21084;51.098;14.506;2023-05-28T12:58:07;33.80;22.40
34873;DHT22;21084;51.098;14.506;2023-05-28T13:00:35;33.80;21.70
34873;DHT22;21084;51.098;14.506;2023-05-28T13:03:05;34.10;21.90
34873;DHT22;21084;51.098;14.506;2023-05-28T13:05:34;33.70;22.10
34873;DHT22;21084;51.098;14.506;2023-05-28T13:08:02;33.60;22.60
34873;DHT22;21084;51.098;14.506;2023-05-28T13:10:31;33.20;22.30
34873;DHT22;21084;51.098;14.506;2023-05-28T13:12:59;32.90;23.20
34873;DHT22;21084;51.098;14.506;2023-05-28T13:15:27;33.30;22.70
34873;DHT22;21084;51.098;14.506;2023-05-28T13:17:55;33.30;21.60
34873;DHT22;21084;51.098;14.506;2023-05-28T13:20:25;33.00;21.60
34873;DHT22;21084;51.098;14.506;2023-05-28T13:22:54;32.50;22.00
34873;DHT22;21084;51.098;14.506;2023-05-28T13:25:22;33.10;22.00
34873;DHT22;21084;51.098;14.506;2023-05-28T13:27:50;33.30;22.50
34873;DHT22;21084;51.098;14.506;2023-05-28T13:30:19;32.80;22.60
34873;DHT22;21084;51.098;14.506;2023-05-28T13:32:47;32.30;23.00
34873;DHT22;21084;51.098;14.506;2023-05-28T13:35:15;32.70;22.70
34873;DHT22;21084;51.098;14.506;2023-05-28T13:37:45;32.30;23.40
34873;DHT22;21084;51.098;14.506;2023-05-28T13:40:13;32.70;22.70
34873;DHT22;21084;51.098;14.506;2023-05-28T13:42:41;32.40;22.60
34873;DHT22;21084;51.098;14.506;2023-05-28T13:45:11;31.90;22.50
34873;DHT22;21084;51.098;14.506;2023-05-28T13:47:39;32.10;23.00
34873;DHT22;21084;51.098;14.506;2023-05-28T13:50:08;32.40;23.20
34873;DHT22;21084;51.098;14.506;2023-05-28T13:52:36;32.40;22.90
34873;DHT22;21084;51.098;14.506;2023-05-28T13:55:07;32.90;22.80
34873;DHT22;21084;51.098;14.506;2023-05-28T13:57:35;32.90;23.20
34873;DHT22;21084;51.098;14.506;2023-05-28T14:00:04;33.20;22.70
34873;DHT22;21084;51.098;14.506;2023-05-28T14:02:35;33.30;22.40
34873;DHT22;21084;51.098;14.506;2023-05-28T14:05:04;32.50;23.20
34873;DHT22;21084;51.098;14.506;2023-05-28T14:07:32;32.40;22.50
34873;DHT22;21084;51.098;14.506;2023-05-28T14:10:01;32.70;22.90
34873;DHT22;21084;51.098;14.506;2023-05-28T14:12:30;33.00;22.60
34873;DHT22;21084;51.098;14.506;2023-05-28T14:14:59;32.90;22.30
34873;DHT22;21084;51.098;14.506;2023-05-28T14:17:28;31.30;22.60
34873;DHT22;21084;51.098;14.506;2023-05-28T14:19:56;31.40;24.40
34873;DHT22;21084;51.098;14.506;2023-05-28T14:22:24;31.90;23.40
34873;DHT22;21084;51.098;14.506;2023-05-28T14:24:53;32.40;23.40
34873;DHT22;21084;51.098;14.506;2023-05-28T14:27:21;32.80;23.30
34873;DHT22;21084;51.098;14.506;2023-05-28T14:29:51;33.20;23.30
34873;DHT22;21084;51.098;14.506;2023-05-28T14:32:19;32.70;22.30
34873;DHT22;21084;51.098;14.506;2023-05-28T14:34:47;31.50;22.00
34873;DHT22;21084;51.098;14.506;2023-05-28T14:37:15;31.10;23.10
34873;DHT22;21084;51.098;14.506;2023-05-28T14:39:44;31.50;23.10
34873;DHT22;21084;51.098;14.506;2023-05-28T14:42:12;31.10;23.60
34873;DHT22;21084;51.098;14.506;2023-05-28T14:44:40;30.40;23.50
34873;DHT22;21084;51.098;14.506;2023-05-28T14:47:10;30.70;24.50
34873;DHT22;21084;51.098;14.506;2023-05-28T14:49:38;30.90;23.40
34873;DHT22;21084;51.098;14.506;2023-05-28T14:52:23;30.30;23.40
34873;DHT22;21084;51.098;14.506;2023-05-28T14:54:52;30.80;23.70
34873;DHT22;21084;51.098;14.506;2023-05-28T14:57:20;31.00;24.20
34873;DHT22;21084;51.098;14.506;2023-05-28T14:59:48;31.60;23.90
34873;DHT22;21084;51.098;14.506;2023-05-28T15:02:18;31.60;23.10
34873;DHT22;21084;51.098;14.506;2023-05-28T15:04:46;31.80;23.10
34873;DHT22;21084;51.098;14.506;2023-05-28T15:07:14;31.90;23.50
34873;DHT22;21084;51.098;14.506;2023-05-28T15:09:43;32.00;24.30
34873;DHT22;21084;51.098;14.506;2023-05-28T15:12:11;32.30;23.90
34873;DHT22;21084;51.098;14.506;2023-05-28T15:14:40;32.30;22.40
34873;DHT22;21084;51.098;14.506;2023-05-28T15:17:08;32.40;22.80
34873;DHT22;21084;51.098;14.506;2023-05-28T15:19:38;32.20;22.90
34873;DHT22;21084;51.098;14.506;2023-05-28T15:22:06;32.30;23.40
34873;DHT22;21084;51.098;14.506;2023-05-28T15:24:34;32.20;23.70
34873;DHT22;21084;51.098;14.506;2023-05-28T15:27:03;31.70;22.90
34873;DHT22;21084;51.098;14.506;2023-05-28T15:29:31;30.90;23.10
34873;DHT22;21084;51.098;14.506;2023-05-28T15:31:59;30.80;23.30
34873;DHT22;21084;51.098;14.506;2023-05-28T15:34:28;30.40;23.90
34873;DHT22;21084;51.098;14.506;2023-05-28T15:36:58;30.60;24.10